createdAt,value
2019-03-16T00:02:37.110Z,10.40
2019-03-16T00:07:33.103Z,10.40
2019-03-16T00:12:23.660Z,10.40
2019-03-16T00:17:23.299Z,10.40
2019-03-16T00:22:10.626Z,10.40
2019-03-16T00:27:03.697Z,10.40
2019-03-16T00:32:12.619Z,10.40
2019-03-16T00:36:54.349Z,10.40
2019-03-16T00:41:46.673Z,10.40
2019-03-16T00:46:39.417Z,10.40
2019-03-16T00:51:31.900Z,10.40
2019-03-16T00:56:24.540Z,10.40
2019-03-16T01:01:17.186Z,10.50
2019-03-16T01:06:09.720Z,10.50
2019-03-16T01:11:02.325Z,10.50
2019-03-16T01:15:55.065Z,10.50
2019-03-16T01:20:47.312Z,10.50
2019-03-16T01:25:39.879Z,10.50
2019-03-16T01:30:32.485Z,10.40
2019-03-16T01:35:25.044Z,10.50
2019-03-16T01:40:17.908Z,10.40
2019-03-16T01:45:11.763Z,10.40
2019-03-16T01:50:05.917Z,10.30
2019-03-16T01:54:58.477Z,10.30
2019-03-16T01:59:51.065Z,10.30
2019-03-16T02:04:43.471Z,10.30
2019-03-16T02:09:36.013Z,10.20
2019-03-16T02:14:28.757Z,10.20
2019-03-16T02:19:21.597Z,10.20
2019-03-16T02:24:13.953Z,10.20
2019-03-16T02:29:06.456Z,10.20
2019-03-16T02:33:58.913Z,10.20
2019-03-16T02:38:51.633Z,10.10
2019-03-16T02:43:44.218Z,10.10
2019-03-16T02:48:36.705Z,10.10
2019-03-16T02:53:29.350Z,10.10
2019-03-16T02:58:21.813Z,10.10
2019-03-16T03:03:28.629Z,10.00
2019-03-16T03:08:08.620Z,10.00
2019-03-16T03:13:01.122Z,10.00
2019-03-16T03:17:53.689Z,10.00
2019-03-16T03:22:46.041Z,10.00
2019-03-16T03:27:38.543Z,10.00
2019-03-16T03:32:31.084Z,10.00
2019-03-16T03:37:23.897Z,10.00
2019-03-16T03:42:16.487Z,10.00
2019-03-16T03:47:09.202Z,10.00
2019-03-16T03:52:01.902Z,10.00
2019-03-16T03:56:54.523Z,10.00
2019-03-16T04:01:46.996Z,10.00
2019-03-16T04:06:39.925Z,10.00
2019-03-16T04:11:32.420Z,10.00
2019-03-16T04:16:25.125Z,10.00
2019-03-16T04:21:17.949Z,10.00
2019-03-16T04:26:10.748Z,10.00
2019-03-16T04:31:03.383Z,10.00
2019-03-16T04:35:55.994Z,10.00
2019-03-16T04:40:48.305Z,9.90
2019-03-16T04:45:41.161Z,9.90
2019-03-16T04:50:33.673Z,9.90
2019-03-16T04:55:26.446Z,9.80
2019-03-16T05:00:19.022Z,9.80
2019-03-16T05:05:11.705Z,9.80
2019-03-16T05:10:07.358Z,9.80
2019-03-16T05:15:00.377Z,9.80
2019-03-16T05:19:52.918Z,9.80
2019-03-16T05:24:45.564Z,9.80
2019-03-16T05:29:37.905Z,9.80
2019-03-16T05:34:30.224Z,9.80
2019-03-16T05:39:22.920Z,9.80
2019-03-16T05:44:15.681Z,9.80
2019-03-16T05:49:07.997Z,9.70
2019-03-16T05:54:01.450Z,9.70
2019-03-16T05:58:54.077Z,9.60
2019-03-16T06:03:46.313Z,9.60
2019-03-16T06:08:38.636Z,9.60
2019-03-16T06:13:31.344Z,9.60
2019-03-16T06:18:24.192Z,9.60
2019-03-16T06:23:16.881Z,9.60
2019-03-16T06:28:09.293Z,9.60
2019-03-16T06:33:01.945Z,9.60
2019-03-16T06:37:54.388Z,9.60
2019-03-16T06:42:46.760Z,9.60
2019-03-16T06:47:39.099Z,9.60
2019-03-16T06:52:31.832Z,9.60
2019-03-16T06:57:24.218Z,9.50
2019-03-16T07:02:17.905Z,9.50
2019-03-16T07:07:10.384Z,9.50
2019-03-16T07:12:03.061Z,9.50
2019-03-16T07:17:02.133Z,9.40
2019-03-16T07:21:49.225Z,9.40
2019-03-16T07:26:41.900Z,9.40
2019-03-16T07:31:34.629Z,9.40
2019-03-16T07:36:27.188Z,9.40
2019-03-16T07:41:19.542Z,9.50
2019-03-16T07:46:11.665Z,9.60
2019-03-16T07:51:04.532Z,9.60
2019-03-16T07:55:56.984Z,9.60
2019-03-16T08:00:49.658Z,9.70
2019-03-16T08:05:43.118Z,10.00
2019-03-16T08:10:35.209Z,10.10
2019-03-16T08:15:28.247Z,10.10
2019-03-16T08:20:20.989Z,10.10
2019-03-16T08:25:13.586Z,10.00
2019-03-16T08:30:08.913Z,9.90
2019-03-16T08:35:01.389Z,9.80
2019-03-16T08:39:54.089Z,9.70
2019-03-16T08:44:46.733Z,9.60
2019-03-16T08:49:39.636Z,9.50
2019-03-16T08:54:32.037Z,9.50
2019-03-16T08:59:24.668Z,9.50
2019-03-16T09:04:16.981Z,9.70
2019-03-16T09:09:09.593Z,9.90
2019-03-16T09:14:02.377Z,10.40
2019-03-16T09:18:54.814Z,10.80
2019-03-16T09:23:47.260Z,11.00
2019-03-16T09:28:39.896Z,10.90
2019-03-16T09:33:32.338Z,10.80
2019-03-16T09:38:24.778Z,10.90
2019-03-16T09:43:17.306Z,11.10
2019-03-16T09:48:09.541Z,11.10
2019-03-16T09:53:02.206Z,10.90
2019-03-16T09:57:54.689Z,11.50
2019-03-16T10:02:47.464Z,14.00
2019-03-16T10:07:39.705Z,16.90
2019-03-16T10:12:32.166Z,17.60
2019-03-16T10:17:24.954Z,16.40
2019-03-16T10:22:20.308Z,15.00
2019-03-16T10:27:12.826Z,14.80
2019-03-16T10:32:05.533Z,14.50
2019-03-16T10:36:58.145Z,14.10
2019-03-16T10:41:50.705Z,13.70
2019-03-16T10:46:43.033Z,13.10
2019-03-16T10:51:35.702Z,12.70
2019-03-16T10:56:28.507Z,12.40
2019-03-16T11:01:20.977Z,12.20
2019-03-16T11:06:13.459Z,12.80
2019-03-16T11:11:06.185Z,12.80
2019-03-16T11:15:58.672Z,12.90
2019-03-16T11:20:51.296Z,13.10
2019-03-16T11:25:43.673Z,12.90
2019-03-16T11:30:36.265Z,12.50
2019-03-16T11:35:28.661Z,12.00
2019-03-16T11:40:21.357Z,11.80
2019-03-16T11:45:16.916Z,11.70
2019-03-16T11:50:10.173Z,11.60
2019-03-16T11:55:02.800Z,11.50
2019-03-16T11:59:55.406Z,11.50
2019-03-16T12:04:47.957Z,12.30
2019-03-16T12:09:40.535Z,12.50
2019-03-16T12:14:33.075Z,12.30
2019-03-16T12:19:25.523Z,12.30
2019-03-16T12:24:17.986Z,12.40
2019-03-16T12:29:11.084Z,12.40
2019-03-16T12:34:03.492Z,12.10
2019-03-16T12:38:56.326Z,11.80
2019-03-16T12:43:48.627Z,11.70
2019-03-16T12:48:41.276Z,11.80
2019-03-16T12:53:34.150Z,12.00
2019-03-16T12:58:26.569Z,12.00
2019-03-16T13:03:19.193Z,12.20
2019-03-16T13:08:11.238Z,12.30
2019-03-16T13:13:03.849Z,12.40
2019-03-16T13:17:56.469Z,12.40
2019-03-16T13:22:49.381Z,12.40
2019-03-16T13:27:42.241Z,12.30
2019-03-16T13:32:34.759Z,12.20
2019-03-16T13:37:27.112Z,12.10
2019-03-16T13:42:19.785Z,12.20
2019-03-16T13:47:12.110Z,12.40
2019-03-16T13:52:04.721Z,12.60
2019-03-16T13:56:57.400Z,12.70
2019-03-16T14:01:49.885Z,12.70
2019-03-16T14:06:42.506Z,12.90
2019-03-16T14:11:35.069Z,13.00
2019-03-16T14:16:27.867Z,13.00
2019-03-16T14:21:20.827Z,13.00
2019-03-16T14:26:13.301Z,12.90
2019-03-16T14:31:06.033Z,12.90
2019-03-16T14:35:59.139Z,12.80
2019-03-16T14:40:51.445Z,12.80
2019-03-16T14:45:44.041Z,12.90
2019-03-16T14:50:36.708Z,12.90
2019-03-16T14:55:29.450Z,13.30
2019-03-16T15:00:22.235Z,13.50
2019-03-16T15:05:15.070Z,13.40
2019-03-16T15:10:10.255Z,13.40
2019-03-16T15:15:04.117Z,13.30
2019-03-16T15:19:56.509Z,13.50
2019-03-16T15:24:48.870Z,13.60
2019-03-16T15:29:41.486Z,13.50
2019-03-16T15:34:34.321Z,13.30
2019-03-16T15:39:26.705Z,13.30
2019-03-16T15:44:19.168Z,13.30
2019-03-16T15:49:11.886Z,13.30
2019-03-16T15:54:04.920Z,13.20
2019-03-16T15:58:57.433Z,13.10
2019-03-16T16:03:50.133Z,13.10
2019-03-16T16:08:44.609Z,13.00
2019-03-16T16:13:37.368Z,12.80
2019-03-16T16:18:29.826Z,12.70
2019-03-16T16:23:22.460Z,12.50
2019-03-16T16:28:15.133Z,12.40
2019-03-16T16:33:07.834Z,12.20
2019-03-16T16:38:00.077Z,12.00
2019-03-16T16:42:52.713Z,11.80
2019-03-16T16:47:45.570Z,11.60
2019-03-16T16:52:37.829Z,11.40
2019-03-16T16:57:30.091Z,11.30
2019-03-16T17:02:22.874Z,11.10
2019-03-16T17:07:15.773Z,11.00
2019-03-16T17:12:08.205Z,10.90
2019-03-16T17:17:00.605Z,10.80
2019-03-16T17:21:53.052Z,10.70
2019-03-16T17:26:45.681Z,10.60
2019-03-16T17:31:42.398Z,10.50
2019-03-16T17:36:35.851Z,10.40
2019-03-16T17:41:28.059Z,10.20
2019-03-16T17:46:20.884Z,10.00
2019-03-16T17:51:13.091Z,9.80
2019-03-16T17:56:05.511Z,9.50
2019-03-16T18:00:57.875Z,9.20
2019-03-16T18:05:50.304Z,9.00
2019-03-16T18:10:42.791Z,8.80
2019-03-16T18:15:35.589Z,8.70
2019-03-16T18:20:28.208Z,8.60
2019-03-16T18:25:20.842Z,8.40
2019-03-16T18:30:21.656Z,8.30
2019-03-16T18:35:14.313Z,8.20
2019-03-16T18:40:11.793Z,8.10
2019-03-16T18:45:06.429Z,7.90
2019-03-16T18:49:58.898Z,7.70
2019-03-16T18:54:51.353Z,7.60
2019-03-16T18:59:43.680Z,7.40
2019-03-16T19:04:36.336Z,7.30
2019-03-16T19:09:28.949Z,7.10
2019-03-16T19:14:21.743Z,6.90
2019-03-16T19:19:14.138Z,6.70
2019-03-16T19:24:06.814Z,6.60
2019-03-16T19:28:59.415Z,6.50
2019-03-16T19:33:53.039Z,6.40
2019-03-16T19:38:45.576Z,6.30
2019-03-16T19:43:38.046Z,6.20
2019-03-16T19:48:30.798Z,6.10
2019-03-16T19:53:23.389Z,6.00
2019-03-16T19:58:15.825Z,5.90
2019-03-16T20:03:08.008Z,5.80
2019-03-16T20:08:00.400Z,5.70
2019-03-16T20:12:53.554Z,5.60
2019-03-16T20:17:47.150Z,5.60
2019-03-16T20:22:39.578Z,5.50
2019-03-16T20:27:32.297Z,5.50
2019-03-16T20:32:24.261Z,5.40
2019-03-16T20:37:16.771Z,5.40
2019-03-16T20:42:09.090Z,5.20
2019-03-16T20:47:01.500Z,5.10
2019-03-16T20:51:54.081Z,5.10
2019-03-16T20:56:46.562Z,5.00
2019-03-16T21:01:39.245Z,5.00
2019-03-16T21:06:31.666Z,5.00
2019-03-16T21:11:24.317Z,4.90
2019-03-16T21:16:16.783Z,4.80
2019-03-16T21:21:09.555Z,4.70
2019-03-16T21:26:02.198Z,4.60
2019-03-16T21:30:54.952Z,4.60
2019-03-16T21:35:47.472Z,4.60
2019-03-16T21:40:39.828Z,4.60
2019-03-16T21:45:32.901Z,4.50
2019-03-16T21:50:25.726Z,4.50
2019-03-16T21:55:18.303Z,4.40
2019-03-16T22:00:15.165Z,4.40
2019-03-16T22:05:09.129Z,4.30
2019-03-16T22:10:01.683Z,4.30
2019-03-16T22:14:54.717Z,4.30
2019-03-16T22:19:47.283Z,4.20
2019-03-16T22:24:39.635Z,4.10
2019-03-16T22:29:32.522Z,4.10
2019-03-16T22:34:25.297Z,4.10
2019-03-16T22:39:18.194Z,4.00
2019-03-16T22:44:10.637Z,4.00
2019-03-16T22:49:02.981Z,4.00
2019-03-16T22:53:55.501Z,4.10
2019-03-16T22:58:48.005Z,4.10
2019-03-16T23:03:40.643Z,4.10
2019-03-16T23:08:33.006Z,4.00
2019-03-16T23:13:25.704Z,4.00
2019-03-16T23:18:18.314Z,4.00
2019-03-16T23:23:10.632Z,4.00
2019-03-16T23:28:03.360Z,4.00
2019-03-16T23:32:55.960Z,4.00
2019-03-16T23:37:48.653Z,4.00
2019-03-16T23:42:41.000Z,4.00
2019-03-16T23:47:33.315Z,4.10
2019-03-16T23:52:26.017Z,4.20
2019-03-16T23:57:18.166Z,4.10
